Bucks, AL

4:02 AM CDT on August 29, 2014 (GMT -0500)
Lott International | Change Station
CLOSE
Current Station
Airport
Location: Pascagoula,
Elevation: 16 ft
Nearby Weather Stations

Elev 16 ft 30.46 °N, 88.53 °W | Updated 9 minutes ago

Clear
Clear
70 °F
Feels Like 70 °F
N
0
Wind Variable Wind from North

Today
High -- | Low -- °F
--% Chance of Precip.
Yesterday
High -- | Low -- °F
Precip. -- in
6:26 AM 7:19 PM
Waxing Crescent, 13% visible
Pressure 29.97 in
Visibility 5.0 miles
Clouds Clear
Dew Point 69 °F
Humidity 97%
Rainfall 0.00 in
Snow Depth Not available.
UV 0 out of 12
Pollen 8.60 out of 12
Ozone Good
Flu Activity Not available.
METAR KPQL 290853Z AUTO 00000KT 5SM BR CLR 21/21 A2996 RMK AO2 SLP147 T02110206 56006 TSNO

More Conditions Fewer Conditions

Pressure 29.97 in
Visibility 5.0 miles
Clouds Clear
Dew Point 69 °F
Humidity 97%
Rainfall 0.00 in
Snow Depth Not available.
UV 0 out of 12
Pollen 8.60 out of 12
Ozone Good
Flu Activity Not available.
METAR KPQL 290853Z AUTO 00000KT 5SM BR CLR 21/21 A2996 RMK AO2 SLP147 T02110206 56006 TSNO

More Conditions Fewer Conditions

10-Day Weather Forecast

Almanac

Astronomy

Aug. 29, 2014 Rise Set
Actual Time 6:26 AM CDT 7:19 PM CDT
Civil Twilight 6:01 AM CDT 7:43 PM CDT
Nautical Twilight 5:32 AM CDT 8:13 PM CDT
Astronomical Twilight 5:02 AM CDT 8:42 PM CDT
Moon 9:58 AM CDT 9:35 PM CDT
Length of Visible Light 13h 42m
Length of Day
12h 52m
Tomorrow will be 1m 47s shorter.
Waxing Crescent, 13% of the Moon is Illuminated
Today
Waxing Crescent
Sep 2
First Quarter
Sep 8
Full
Sep 15
Last Quarter
Sep 24
New

Today's Extremes

State Highs State Lows

Community

WunderPhotos

Upload Photos

1,748,203 photos uploaded!

Nearby

Air Quality

  Air Quality AQ Index Pollutant
Yesterday Good
OZONE
Current Good
OZONE
Friday Good
OZONE

Snow Depth

Station Depth Elevation
No new snow has been reported.

Earthquake Activity

City Distance Mag. Time & Date
No recent earthquake activity has been reported nearby.
Minimum magnitude displayed is 2.5.

Coastal Water Temperatures

Place Temperature
Mobile State Docks, AL 84.9 °F
Coast Guard Sector Mobile, AL 84.9 °F

Nearby Weather Stations